createdAt,value
2022-10-17T00:01:37.118Z,5.57
2022-10-17T00:04:38.392Z,7.38
2022-10-17T00:07:39.686Z,5.80
2022-10-17T00:10:41.529Z,6.78
2022-10-17T00:13:42.917Z,4.78
2022-10-17T00:16:44.222Z,6.95
2022-10-17T00:19:45.478Z,5.70
2022-10-17T00:22:46.781Z,7.78
2022-10-17T00:25:48.011Z,5.82
2022-10-17T00:28:49.849Z,5.28
2022-10-17T00:35:00.309Z,5.63
2022-10-17T00:38:01.534Z,4.82
2022-10-17T00:41:03.408Z,7.32
2022-10-17T00:44:06.087Z,5.60
2022-10-17T00:47:10.420Z,7.45
2022-10-17T00:50:12.849Z,5.88
2022-10-17T00:53:14.762Z,5.80
2022-10-17T00:56:16.194Z,7.85
2022-10-17T00:59:19.197Z,6.05
2022-10-17T01:02:21.406Z,5.22
2022-10-17T01:05:22.922Z,5.00
2022-10-17T01:08:24.292Z,6.57
2022-10-17T01:11:44.060Z,7.00
2022-10-17T01:14:51.596Z,5.28
2022-10-17T01:17:59.150Z,7.72
2022-10-17T01:21:06.457Z,5.35
2022-10-17T01:24:14.526Z,4.95
2022-10-17T01:27:32.675Z,5.20
2022-10-17T01:30:50.987Z,4.85
2022-10-17T01:34:00.505Z,4.97
2022-10-17T01:37:07.884Z,5.15
2022-10-17T01:40:11.782Z,4.68
2022-10-17T01:43:32.529Z,4.68
2022-10-17T01:46:37.078Z,4.93
2022-10-17T01:49:40.144Z,4.40
2022-10-17T01:52:53.000Z,6.15
2022-10-17T01:59:05.541Z,5.40
2022-10-17T02:05:08.486Z,5.05
2022-10-17T02:08:09.812Z,5.00
2022-10-17T02:11:14.602Z,7.95
2022-10-17T02:14:24.965Z,5.32
2022-10-17T02:17:35.065Z,4.28
2022-10-17T02:20:42.269Z,5.18
2022-10-17T02:23:52.818Z,5.53
2022-10-17T02:26:57.614Z,5.13
2022-10-17T02:30:01.665Z,5.68
2022-10-17T02:33:06.736Z,5.50
2022-10-17T02:36:13.933Z,4.18
2022-10-17T02:39:16.261Z,5.63
2022-10-17T02:42:17.870Z,5.20
2022-10-17T02:45:20.043Z,4.85
2022-10-17T02:48:30.762Z,6.95
2022-10-17T02:51:35.725Z,5.65
2022-10-17T02:54:37.194Z,4.97
2022-10-17T02:57:40.752Z,4.70
2022-10-17T03:00:42.216Z,5.78
2022-10-17T03:03:43.466Z,7.65
2022-10-17T03:06:45.730Z,4.93
2022-10-17T03:09:46.957Z,5.78
2022-10-17T03:12:48.235Z,5.50
2022-10-17T03:15:49.453Z,5.28
2022-10-17T03:18:50.692Z,4.95
2022-10-17T03:21:51.918Z,6.05
2022-10-17T03:24:53.143Z,4.28
2022-10-17T03:27:54.714Z,7.60
2022-10-17T03:30:55.933Z,5.18
2022-10-17T03:33:57.178Z,7.03
2022-10-17T03:36:58.549Z,5.28
2022-10-17T03:39:59.840Z,5.03
2022-10-17T03:43:01.059Z,4.85
2022-10-17T03:46:02.959Z,5.55
2022-10-17T03:49:04.545Z,6.00
2022-10-17T03:52:05.782Z,6.35
2022-10-17T03:55:07.229Z,5.68
2022-10-17T03:58:08.740Z,7.55
2022-10-17T04:01:11.030Z,6.32
2022-10-17T04:04:12.326Z,5.18
2022-10-17T04:07:13.651Z,7.60
2022-10-17T04:10:15.038Z,4.93
2022-10-17T04:13:16.320Z,6.55
2022-10-17T04:16:17.541Z,6.25
2022-10-17T04:19:19.383Z,6.28
2022-10-17T04:22:20.605Z,6.22
2022-10-17T04:25:22.285Z,5.47
2022-10-17T04:28:23.984Z,5.32
2022-10-17T04:31:25.351Z,4.78
2022-10-17T04:34:26.659Z,4.63
2022-10-17T04:37:29.923Z,6.80
2022-10-17T04:40:31.311Z,4.88
2022-10-17T04:43:36.509Z,6.32
2022-10-17T04:46:38.629Z,4.75
2022-10-17T04:52:46.064Z,5.22
2022-10-17T04:55:47.383Z,6.50
2022-10-17T04:58:48.701Z,5.60
2022-10-17T05:01:49.964Z,6.72
2022-10-17T05:04:51.271Z,4.78
2022-10-17T05:07:52.944Z,5.32
2022-10-17T05:10:54.282Z,4.82
2022-10-17T05:13:57.022Z,6.57
2022-10-17T05:16:58.243Z,5.25
2022-10-17T05:19:59.509Z,8.63
2022-10-17T05:23:01.045Z,6.72
2022-10-17T05:26:02.356Z,5.35
2022-10-17T05:29:04.256Z,7.30
2022-10-17T05:32:06.071Z,7.13
2022-10-17T05:35:07.358Z,5.03
2022-10-17T05:38:08.593Z,4.68
2022-10-17T05:41:11.134Z,7.65
2022-10-17T05:44:13.366Z,5.35
2022-10-17T05:47:14.835Z,5.35
2022-10-17T05:50:16.181Z,5.53
2022-10-17T05:53:17.497Z,6.28
2022-10-17T05:56:20.267Z,4.95
2022-10-17T05:59:21.621Z,6.00
2022-10-17T06:02:23.124Z,10.05
2022-10-17T06:05:24.727Z,7.70
2022-10-17T06:08:25.974Z,12.20
2022-10-17T06:11:27.196Z,7.13
2022-10-17T06:14:28.426Z,8.82
2022-10-17T06:17:30.281Z,11.82
2022-10-17T06:20:31.682Z,7.97
2022-10-17T06:23:32.952Z,7.60
2022-10-17T06:26:34.194Z,9.30
2022-10-17T06:29:35.412Z,7.78
2022-10-17T06:32:36.712Z,6.75
2022-10-17T06:35:37.929Z,5.88
2022-10-17T06:38:39.384Z,6.78
2022-10-17T06:41:44.522Z,9.25
2022-10-17T06:44:47.231Z,9.05
2022-10-17T06:47:49.243Z,5.45
2022-10-17T06:50:50.472Z,6.03
2022-10-17T06:53:52.584Z,5.97
2022-10-17T06:56:55.983Z,7.50
2022-10-17T06:59:57.700Z,5.50
2022-10-17T07:03:00.499Z,5.80
2022-10-17T07:06:01.959Z,7.50
2022-10-17T07:09:03.360Z,6.57
2022-10-17T07:12:07.876Z,8.48
2022-10-17T07:15:09.259Z,8.15
2022-10-17T07:18:10.748Z,7.47
2022-10-17T07:21:12.040Z,5.50
2022-10-17T07:24:13.264Z,7.53
2022-10-17T07:27:14.933Z,8.02
2022-10-17T07:30:16.591Z,5.80
2022-10-17T07:33:17.812Z,7.20
2022-10-17T07:36:19.248Z,7.38
2022-10-17T07:39:20.673Z,7.82
2022-10-17T07:42:22.407Z,8.98
2022-10-17T07:45:23.894Z,8.32
2022-10-17T07:48:25.354Z,11.45
2022-10-17T07:51:27.784Z,9.68
2022-10-17T07:54:29.095Z,9.23
2022-10-17T07:57:30.350Z,11.13
2022-10-17T08:00:31.726Z,10.98
2022-10-17T08:03:33.145Z,10.50
2022-10-17T08:06:34.389Z,9.80
2022-10-17T08:09:35.657Z,10.45
2022-10-17T08:12:36.954Z,10.95
2022-10-17T08:15:38.938Z,8.70
2022-10-17T08:18:42.408Z,8.75
2022-10-17T08:21:45.020Z,6.20
2022-10-17T08:24:46.368Z,11.40
2022-10-17T08:27:47.831Z,7.65
2022-10-17T08:30:49.089Z,5.55
2022-10-17T08:33:50.631Z,4.47
2022-10-17T08:36:51.931Z,5.13
2022-10-17T08:39:53.191Z,6.00
2022-10-17T08:42:54.425Z,6.13
2022-10-17T08:46:00.191Z,5.60
2022-10-17T08:49:02.244Z,5.10
2022-10-17T08:52:06.817Z,5.10
2022-10-17T08:58:32.917Z,5.78
2022-10-17T09:01:40.400Z,4.82
2022-10-17T09:04:41.620Z,5.03
2022-10-17T09:07:42.854Z,3.80
2022-10-17T09:10:53.389Z,6.72
2022-10-17T09:14:13.710Z,3.72
2022-10-17T09:17:14.925Z,6.28
2022-10-17T09:20:18.467Z,8.57
2022-10-17T09:23:23.855Z,6.35
2022-10-17T09:26:25.652Z,4.35
2022-10-17T09:29:31.165Z,4.60
2022-10-17T09:32:37.230Z,3.88
2022-10-17T09:35:38.786Z,5.72
2022-10-17T09:38:45.403Z,4.63
2022-10-17T09:41:50.810Z,4.43
2022-10-17T09:45:15.298Z,3.85
2022-10-17T09:48:22.627Z,3.75
2022-10-17T09:51:26.157Z,4.97
2022-10-17T09:54:29.570Z,3.08
2022-10-17T09:57:50.831Z,3.90
2022-10-17T10:00:52.130Z,5.82
2022-10-17T10:04:16.541Z,3.22
2022-10-17T10:07:20.623Z,4.20
2022-10-17T10:10:27.804Z,4.15
2022-10-17T10:13:30.272Z,3.72
2022-10-17T10:16:33.027Z,4.30
2022-10-17T10:19:35.563Z,3.38
2022-10-17T10:22:36.779Z,4.30
2022-10-17T10:25:38.081Z,3.88
2022-10-17T10:28:39.961Z,3.17
2022-10-17T10:31:41.340Z,3.20
2022-10-17T10:34:50.321Z,2.72
2022-10-17T10:37:55.793Z,2.60
2022-10-17T10:41:04.942Z,2.70
2022-10-17T10:44:06.416Z,3.47
2022-10-17T10:47:26.860Z,4.82
2022-10-17T10:50:31.165Z,2.60
2022-10-17T10:53:48.370Z,3.85
2022-10-17T10:56:53.324Z,3.03
2022-10-17T11:00:08.388Z,4.00
2022-10-17T11:03:16.220Z,2.83
2022-10-17T11:06:22.740Z,3.20
2022-10-17T11:09:36.325Z,2.72
2022-10-17T11:12:47.371Z,3.60
2022-10-17T11:16:02.124Z,3.13
2022-10-17T11:19:03.313Z,3.28
2022-10-17T11:22:11.238Z,4.10
2022-10-17T11:25:12.445Z,3.03
2022-10-17T11:28:15.788Z,2.60
2022-10-17T11:31:17.691Z,3.17
2022-10-17T11:34:29.500Z,2.67
2022-10-17T11:37:32.935Z,4.72
2022-10-17T11:40:35.889Z,2.78
2022-10-17T11:43:57.424Z,3.75
2022-10-17T11:47:01.643Z,2.83
2022-10-17T11:53:39.446Z,2.53
2022-10-17T11:56:44.474Z,2.97
2022-10-17T11:59:52.672Z,2.63
2022-10-17T12:02:56.899Z,2.72
2022-10-17T12:06:11.888Z,2.72
2022-10-17T12:09:13.114Z,2.97
2022-10-17T12:12:24.164Z,3.20
2022-10-17T12:15:26.126Z,2.50
2022-10-17T12:18:27.413Z,3.28
2022-10-17T12:21:31.477Z,2.72
2022-10-17T12:24:39.402Z,2.53
2022-10-17T12:27:46.173Z,2.85
2022-10-17T12:30:52.233Z,3.28
2022-10-17T12:33:55.242Z,3.95
2022-10-17T12:36:56.480Z,2.60
2022-10-17T12:39:57.724Z,3.15
2022-10-17T12:42:59.051Z,2.55
2022-10-17T12:46:01.307Z,3.13
2022-10-17T12:49:03.878Z,2.88
2022-10-17T12:52:17.487Z,4.00
2022-10-17T12:55:19.399Z,2.33
2022-10-17T12:58:20.677Z,2.83
2022-10-17T13:01:32.165Z,2.65
2022-10-17T13:04:36.167Z,2.60
2022-10-17T13:07:40.515Z,3.00
2022-10-17T13:10:46.311Z,3.35
2022-10-17T13:13:49.508Z,3.00
2022-10-17T13:16:51.204Z,3.40
2022-10-17T13:19:52.800Z,3.42
2022-10-17T13:22:55.318Z,2.65
2022-10-17T13:26:15.971Z,2.85
2022-10-17T13:29:18.177Z,3.63
2022-10-17T13:32:19.527Z,3.22
2022-10-17T13:35:55.303Z,2.30
2022-10-17T13:38:51.132Z,3.72
2022-10-17T13:41:53.229Z,4.13
2022-10-17T13:44:54.981Z,2.53
2022-10-17T13:47:57.171Z,3.28
2022-10-17T13:51:02.766Z,3.70
2022-10-17T13:54:17.137Z,2.67
2022-10-17T13:57:25.904Z,2.75
2022-10-17T14:00:27.287Z,2.78
2022-10-17T14:03:37.583Z,3.78
2022-10-17T14:06:51.302Z,3.45
2022-10-17T14:09:53.514Z,3.13
2022-10-17T14:12:55.109Z,2.70
2022-10-17T14:15:58.979Z,2.53
2022-10-17T14:19:00.507Z,2.45
2022-10-17T14:22:34.340Z,3.20
2022-10-17T14:25:36.558Z,3.63
2022-10-17T14:28:38.560Z,2.50
2022-10-17T14:31:40.077Z,3.45
2022-10-17T14:34:41.342Z,2.72
2022-10-17T14:37:44.290Z,4.20
2022-10-17T14:40:52.973Z,5.25
2022-10-17T14:43:56.443Z,4.43
2022-10-17T14:46:59.522Z,4.30
2022-10-17T14:50:06.089Z,6.53
2022-10-17T14:53:21.064Z,3.13
2022-10-17T14:56:23.940Z,6.22
2022-10-17T14:59:52.097Z,4.20
2022-10-17T15:02:47.895Z,3.35
2022-10-17T15:05:49.642Z,4.53
2022-10-17T15:08:50.885Z,3.88
2022-10-17T15:11:52.228Z,3.05
2022-10-17T15:14:53.678Z,3.67
2022-10-17T15:17:55.238Z,3.63
2022-10-17T15:21:05.028Z,3.83
2022-10-17T15:24:07.938Z,5.53
2022-10-17T15:27:16.634Z,4.22
2022-10-17T15:30:22.698Z,3.88
2022-10-17T15:33:23.966Z,3.80
2022-10-17T15:36:29.080Z,4.35
2022-10-17T15:39:30.353Z,4.15
2022-10-17T15:42:31.952Z,4.82
2022-10-17T15:45:33.223Z,3.22
2022-10-17T15:48:34.451Z,3.53
2022-10-17T15:51:35.714Z,4.38
2022-10-17T15:54:36.980Z,3.70
2022-10-17T15:57:40.139Z,4.85
2022-10-17T16:00:41.544Z,5.63
2022-10-17T16:03:42.885Z,3.30
2022-10-17T16:06:44.545Z,5.28
2022-10-17T16:09:45.846Z,4.88
2022-10-17T16:12:49.666Z,4.78
2022-10-17T16:15:51.081Z,3.47
2022-10-17T16:18:52.442Z,5.93
2022-10-17T16:21:53.731Z,4.38
2022-10-17T16:24:58.931Z,4.32
2022-10-17T16:28:00.555Z,5.30
2022-10-17T16:31:02.007Z,4.53
2022-10-17T16:34:03.947Z,3.83
2022-10-17T16:37:05.308Z,3.75
2022-10-17T16:40:06.750Z,4.30
2022-10-17T16:43:10.688Z,6.28
2022-10-17T16:46:11.918Z,6.05
2022-10-17T16:49:15.929Z,5.18
2022-10-17T16:52:17.165Z,5.00
2022-10-17T16:55:18.938Z,6.50
2022-10-17T16:58:20.175Z,7.10
2022-10-17T17:01:25.893Z,7.10
2022-10-17T17:04:27.190Z,5.65
2022-10-17T17:07:29.696Z,6.80
2022-10-17T17:10:31.344Z,6.05
2022-10-17T17:13:32.573Z,5.88
2022-10-17T17:16:34.883Z,6.90
2022-10-17T17:19:36.181Z,6.18
2022-10-17T17:22:37.468Z,6.43
2022-10-17T17:25:41.659Z,7.85
2022-10-17T17:28:43.195Z,6.43
2022-10-17T17:31:44.507Z,7.85
2022-10-17T17:34:45.766Z,7.50
2022-10-17T17:37:47.039Z,7.03
2022-10-17T17:40:50.737Z,5.10
2022-10-17T17:43:53.018Z,5.75
2022-10-17T17:46:54.375Z,5.25
2022-10-17T17:49:55.627Z,8.68
2022-10-17T17:52:56.875Z,8.50
2022-10-17T17:56:02.034Z,8.52
2022-10-17T17:59:03.334Z,7.03
2022-10-17T18:02:06.327Z,8.95
2022-10-17T18:05:07.746Z,7.22
2022-10-17T18:08:08.963Z,6.60
2022-10-17T18:11:10.536Z,7.63
2022-10-17T18:14:12.962Z,7.18
2022-10-17T18:17:14.413Z,6.60
2022-10-17T18:20:15.661Z,8.05
2022-10-17T18:23:18.267Z,7.43
2022-10-17T18:26:19.957Z,7.30
2022-10-17T18:29:21.287Z,10.10
2022-10-17T18:32:22.554Z,7.82
2022-10-17T18:35:23.812Z,9.52
2022-10-17T18:38:25.035Z,7.18
2022-10-17T18:41:26.911Z,7.25
2022-10-17T18:44:28.186Z,7.90
2022-10-17T18:47:29.815Z,7.85
2022-10-17T18:50:31.321Z,8.43
2022-10-17T18:53:32.944Z,7.45
2022-10-17T18:56:34.607Z,8.77
2022-10-17T18:59:36.811Z,10.00
2022-10-17T19:02:38.217Z,8.55
2022-10-17T19:05:39.958Z,8.27
2022-10-17T19:08:41.739Z,7.50
2022-10-17T19:11:43.103Z,7.85
2022-10-17T19:14:44.377Z,7.65
2022-10-17T19:17:45.639Z,8.55
2022-10-17T19:20:46.965Z,6.68
2022-10-17T19:23:52.527Z,8.90
2022-10-17T19:26:54.806Z,8.68
2022-10-17T19:29:56.055Z,7.22
2022-10-17T19:32:57.329Z,7.50
2022-10-17T19:35:59.467Z,6.93
2022-10-17T19:39:05.797Z,8.30
2022-10-17T19:42:07.272Z,9.25
2022-10-17T19:45:08.974Z,7.65
2022-10-17T19:48:10.216Z,9.18
2022-10-17T19:51:14.525Z,7.88
2022-10-17T19:54:18.244Z,6.57
2022-10-17T19:57:19.497Z,7.40
2022-10-17T20:00:20.749Z,10.93
2022-10-17T20:03:21.994Z,14.38
2022-10-17T20:06:23.383Z,12.43
2022-10-17T20:09:25.080Z,13.20
2022-10-17T20:12:26.329Z,12.75
2022-10-17T20:15:27.556Z,9.20
2022-10-17T20:18:28.889Z,7.82
2022-10-17T20:21:36.279Z,11.13
2022-10-17T20:24:37.631Z,9.07
2022-10-17T20:27:38.897Z,9.63
2022-10-17T20:30:44.554Z,10.05
2022-10-17T20:33:45.842Z,9.18
2022-10-17T20:36:47.669Z,9.65
2022-10-17T20:39:55.817Z,9.57
2022-10-17T20:43:07.347Z,9.65
2022-10-17T20:46:23.524Z,9.82
2022-10-17T20:49:35.463Z,9.25
2022-10-17T20:52:36.805Z,8.93
2022-10-17T20:55:38.165Z,9.35
2022-10-17T20:58:39.576Z,7.15
2022-10-17T21:01:40.896Z,9.65
2022-10-17T21:04:46.717Z,7.15
2022-10-17T21:07:48.831Z,9.32
2022-10-17T21:10:50.085Z,8.25
2022-10-17T21:14:09.970Z,9.05
2022-10-17T21:17:11.208Z,9.23
2022-10-17T21:20:12.517Z,7.72
2022-10-17T21:23:13.746Z,8.63
2022-10-17T21:26:15.851Z,9.88
2022-10-17T21:29:17.121Z,8.35
2022-10-17T21:32:31.973Z,7.70
2022-10-17T21:35:39.562Z,8.32
2022-10-17T21:38:40.832Z,7.85
2022-10-17T21:41:42.763Z,6.78
2022-10-17T21:44:44.074Z,9.40
2022-10-17T21:48:11.076Z,9.30
2022-10-17T21:51:08.116Z,8.35
2022-10-17T21:54:09.515Z,6.95
2022-10-17T21:57:10.904Z,9.30
2022-10-17T22:00:12.395Z,7.38
2022-10-17T22:03:15.275Z,8.30
2022-10-17T22:06:39.819Z,7.95
2022-10-17T22:09:39.464Z,8.40
2022-10-17T22:12:40.719Z,7.05
2022-10-17T22:15:41.971Z,7.38
2022-10-17T22:18:43.247Z,7.93
2022-10-17T22:21:44.648Z,8.68
2022-10-17T22:24:45.916Z,9.30
2022-10-17T22:27:47.131Z,8.70
2022-10-17T22:30:48.509Z,8.40
2022-10-17T22:33:50.794Z,9.38
2022-10-17T22:36:52.080Z,9.20
2022-10-17T22:39:53.294Z,7.05
2022-10-17T22:42:55.097Z,9.35
2022-10-17T22:45:57.937Z,8.23
2022-10-17T22:48:59.227Z,9.00
2022-10-17T22:52:00.538Z,9.00
2022-10-17T22:55:01.843Z,8.95
2022-10-17T22:58:03.200Z,13.90
2022-10-17T23:01:05.173Z,10.07
2022-10-17T23:04:06.458Z,7.68
2022-10-17T23:07:12.378Z,7.85
2022-10-17T23:10:13.632Z,10.35
2022-10-17T23:13:15.150Z,6.53
2022-10-17T23:16:16.539Z,9.38
2022-10-17T23:19:17.817Z,7.72
2022-10-17T23:22:19.038Z,9.05
2022-10-17T23:25:20.321Z,7.80
2022-10-17T23:28:21.642Z,7.25
2022-10-17T23:31:22.895Z,5.95
2022-10-17T23:34:24.242Z,8.05
2022-10-17T23:37:25.598Z,7.72
2022-10-17T23:40:27.202Z,6.80
2022-10-17T23:43:28.480Z,7.47
2022-10-17T23:46:29.776Z,9.98
2022-10-17T23:49:32.233Z,7.03
2022-10-17T23:52:33.503Z,7.35
2022-10-17T23:55:34.747Z,12.23
2022-10-17T23:58:36.224Z,6.65
